Nespuck — DJ9649 — position and weather

sailwx.info

Track history (hours):
 
Tides and Currents Weather Stations Pressure Air Temp Water Temp Dewpoint Dewpoint Depression Visibility Wind Speed Wind Dir Waves Ship Positions

Nespuck

Last reported at 2018-Apr-16 00:54 UTC. Time now 2018-Apr-21 19:26 UTC.
Position N 34°05' W 119°15'.

Length 13 m.

Type: Sailing vessel. MMSI: 211422810.

Date/timePositionNaut miles runAvg speedWind from/ knotsBaromVisibWave heightAir tempDewpointWater temp
2018-Apr-16 00:54N 34°05' W 119°15'5 8.0
2018-Apr-16 00:19N 34°01' W 119°19'3 6.5
2018-Apr-15 23:53N 34°02' W 119°23'2 6.0
2018-Apr-15 23:29N 34°03' W 119°25'3 6.4
2018-Apr-15 22:59N 34°03' W 119°29'3 6.5
2018-Apr-15 22:29N 34°04' W 119°33'3 5.2
2018-Apr-15 22:00N 34°04' W 119°36'3 5.9
2018-Apr-15 21:29N 34°05' W 119°40'3 6.4
2018-Apr-15 21:00N 34°06' W 119°43'4 7.3
2018-Apr-15 20:29N 34°08' W 119°47'4 7.4
2018-Apr-15 19:58N 34°09' W 119°52'2 4.7
2018-Apr-15 19:28N 34°10' W 119°54'2 3.5
2018-Apr-15 18:52N 34°10' W 119°57'2 4.5
2018-Apr-15 18:23N 34°10' W 119°60'3 4.1
2018-Apr-15 17:46N 34°10' W 120°03'1 4.1
2018-Apr-15 17:30N 34°11' W 120°04'2 3.9
2018-Apr-15 17:00N 34°11' W 120°06'2 4.6
2018-Apr-15 16:29N 34°11' W 120°09'2 4.1
2018-Apr-15 15:58N 34°11' W 120°12'2 4.5
2018-Apr-15 15:30N 34°12' W 120°14'2 4.4
2018-Apr-15 15:00N 34°13' W 120°17'3 5.4
2018-Apr-15 14:30N 34°13' W 120°20'3 5.2
2018-Apr-15 14:00N 34°14' W 120°23'3 5.2
2018-Apr-15 13:30N 34°15' W 120°26'2 5.0
2018-Apr-15 13:00N 34°16' W 120°29'3 5.3
2018-Apr-15 12:30N 34°16' W 120°32'3 5.4
2018-Apr-15 12:00N 34°17' W 120°35'3 5.1
2018-Apr-15 11:25N 34°18' W 120°38'2 5.7
2018-Apr-15 11:00N 34°18' W 120°41'3 5.8
2018-Apr-15 10:25N 34°18' W 120°45'21 3.8
2018-Apr-15 04:53N 34°31' W 121°06'3 5.6
2018-Apr-15 04:24N 34°33' W 121°07'207 5.6
2018-Apr-13 15:18N 37°48' W 122°34'2 4.7
2018-Apr-13 14:49N 37°48' W 122°31'2 5.1
2018-Apr-13 14:29N 37°49' W 122°29'  
2018-Apr-09 21:57N 37°50' W 122°27'2 3.1
2018-Apr-09 21:26N 37°48' W 122°27'0 0.0
2018-Apr-09 20:56N 37°48' W 122°27'0 0.0
2018-Apr-09 20:29N 37°48' W 122°27'0 0.0
2018-Apr-09 19:59N 37°48' W 122°27'0 0.0
2018-Apr-09 19:28N 37°48' W 122°27'0 0.0
2018-Apr-09 18:58N 37°48' W 122°27'0 0.0
2018-Apr-09 18:28N 37°48' W 122°27'0 0.0
2018-Apr-09 17:55N 37°48' W 122°27'0 0.0
2018-Apr-09 17:28N 37°48' W 122°27'0 0.0
2018-Apr-09 16:58N 37°48' W 122°27'0 0.0
2018-Apr-09 16:27N 37°48' W 122°27'0 0.0
2018-Apr-09 15:57N 37°48' W 122°27'0 0.0
2018-Apr-09 15:27N 37°48' W 122°27'0 0.0
2018-Apr-09 14:57N 37°48' W 122°27'0 0.0
2018-Apr-09 14:27N 37°48' W 122°27'0 0.0
2018-Apr-09 13:57N 37°48' W 122°27'0 0.0
2018-Apr-09 13:30N 37°48' W 122°27'0 0.0
2018-Apr-09 13:00N 37°48' W 122°27'0 0.0
2018-Apr-09 12:26N 37°48' W 122°27'0 0.0
2018-Apr-09 11:57N 37°48' W 122°27'0 0.0
2018-Apr-09 11:21N 37°48' W 122°27'0 0.0
2018-Apr-09 10:59N 37°48' W 122°27'0 0.0
2018-Apr-09 10:26N 37°48' W 122°27'0 0.0
2018-Apr-09 09:59N 37°48' W 122°27'0 0.0
2018-Apr-09 09:29N 37°48' W 122°27'0 0.0
2018-Apr-09 08:56N 37°48' W 122°27'0 0.0
2018-Apr-09 08:25N 37°48' W 122°27'0 0.0
2018-Apr-09 07:55N 37°48' W 122°27'0 0.0
2018-Apr-09 07:25N 37°48' W 122°27'0 0.0
2018-Apr-09 06:55N 37°48' W 122°27'0 0.0
2018-Apr-09 06:25N 37°48' W 122°27'0 0.0
2018-Apr-09 05:58N 37°48' W 122°27'0 0.0
2018-Apr-09 05:28N 37°48' W 122°27'0 0.0
2018-Apr-09 04:58N 37°48' W 122°27'0 0.0
2018-Apr-09 04:25N 37°48' W 122°27'0 0.0
2018-Apr-09 04:00N 37°48' W 122°27'0 0.0
2018-Apr-09 03:30N 37°48' W 122°27'0 0.0
2018-Apr-09 03:00N 37°48' W 122°27'0 0.0
2018-Apr-09 02:30N 37°48' W 122°27'0 0.0
2018-Apr-09 02:00N 37°48' W 122°27'0 0.0
2018-Apr-09 01:27N 37°48' W 122°27'0 0.0
2018-Apr-09 01:01N 37°48' W 122°27'0 0.0
2018-Apr-09 00:25N 37°48' W 122°27'0 0.0
2018-Apr-09 00:00N 37°48' W 122°27'0 0.0
2018-Apr-08 23:24N 37°48' W 122°27'0 0.0
2018-Apr-08 22:54N 37°48' W 122°27'0 0.0
2018-Apr-08 22:30N 37°48' W 122°27'0 0.0
2018-Apr-08 22:00N 37°48' W 122°27'0 0.0
2018-Apr-08 21:30N 37°48' W 122°27'0 0.0
2018-Apr-08 21:00N 37°48' W 122°27'0 0.0
2018-Apr-08 20:24N 37°48' W 122°27'0 0.0
2018-Apr-08 19:54N 37°48' W 122°27'0 0.0
2018-Apr-08 19:27N 37°48' W 122°27'0 0.0
2018-Apr-08 19:00N 37°48' W 122°27'0 0.0
2018-Apr-08 18:24N 37°48' W 122°27'0 0.0
2018-Apr-08 17:59N 37°48' W 122°27'0 0.0
2018-Apr-08 17:24N 37°48' W 122°27'0 0.0
2018-Apr-08 16:59N 37°48' W 122°27'0 0.0
2018-Apr-08 16:26N 37°48' W 122°27'0 0.0
2018-Apr-08 15:59N 37°48' W 122°27'0 0.0
2018-Apr-08 15:29N 37°48' W 122°27'0 0.0
2018-Apr-08 14:59N 37°48' W 122°27'0 0.0
2018-Apr-08 14:30N 37°48' W 122°27'0 0.0
2018-Apr-08 14:00N 37°48' W 122°27'0 0.0
2018-Apr-08 13:30N 37°48' W 122°27'0 0.0
2018-Apr-08 13:00N 37°48' W 122°27'0 0.0
2018-Apr-08 12:30N 37°48' W 122°27'0 0.0
2018-Apr-08 12:00N 37°48' W 122°27'0 0.0
2018-Apr-08 11:30N 37°48' W 122°27'0 0.0
2018-Apr-08 10:59N 37°48' W 122°27'0 0.0
2018-Apr-08 10:29N 37°48' W 122°27'0 0.0
2018-Apr-08 09:56N 37°48' W 122°27'0 0.0
2018-Apr-08 09:28N 37°48' W 122°27'0 0.0
2018-Apr-08 08:58N 37°48' W 122°27'0 0.0
2018-Apr-08 08:28N 37°48' W 122°27'0 0.0
2018-Apr-08 07:48N 37°48' W 122°27'0 0.0
2018-Apr-08 07:30N 37°48' W 122°27'0 0.0
2018-Apr-08 07:00N 37°48' W 122°27'0 0.0
2018-Apr-08 06:30N 37°48' W 122°27'0 0.0
2018-Apr-08 06:00N 37°48' W 122°27'0 0.0
2018-Apr-08 05:30N 37°48' W 122°27'0 0.0
2018-Apr-08 04:59N 37°48' W 122°27'0 0.0
2018-Apr-08 04:29N 37°48' W 122°27'0 0.0
2018-Apr-08 03:59N 37°48' W 122°27'0 0.0
2018-Apr-08 03:28N 37°48' W 122°27'0 0.0
2018-Apr-08 02:58N 37°48' W 122°27'0 0.0
2018-Apr-08 02:28N 37°48' W 122°27'0 0.0
2018-Apr-08 01:58N 37°48' W 122°27'0 0.0
2018-Apr-08 01:16N 37°48' W 122°27'0 0.0
2018-Apr-08 00:58N 37°48' W 122°27'0 0.0
2018-Apr-08 00:28N 37°48' W 122°27'0 0.0
2018-Apr-07 23:58N 37°48' W 122°27'0 0.0
2018-Apr-07 23:25N 37°48' W 122°27'0 0.0
2018-Apr-07 22:55N 37°48' W 122°27'0 0.0
2018-Apr-07 22:27N 37°48' W 122°27'0 0.0
2018-Apr-07 22:00N 37°48' W 122°27'0 0.0
2018-Apr-07 21:27N 37°48' W 122°27'0 0.0
2018-Apr-07 20:57N 37°48' W 122°27'0 0.0
2018-Apr-07 20:27N 37°48' W 122°27'0 0.0
2018-Apr-07 19:57N 37°48' W 122°27'0 0.0
2018-Apr-07 19:30N 37°48' W 122°27'0 0.0
2018-Apr-07 19:00N 37°48' W 122°27'0 0.0
2018-Apr-07 18:27N 37°48' W 122°27'0 0.0
2018-Apr-07 17:54N 37°48' W 122°27'0 0.0
2018-Apr-07 17:30N 37°48' W 122°27'0 0.0
2018-Apr-07 17:00N 37°48' W 122°27'0 0.0
2018-Apr-07 16:30N 37°48' W 122°27'0 0.0
2018-Apr-07 16:00N 37°48' W 122°27'0 0.0
2018-Apr-07 15:30N 37°48' W 122°27'0 0.0
2018-Apr-07 14:57N 37°48' W 122°27'0 0.0
2018-Apr-07 14:27N 37°48' W 122°27'0 0.0
2018-Apr-07 13:59N 37°48' W 122°27'0 0.0
2018-Apr-07 13:29N 37°48' W 122°27'0 0.0
2018-Apr-07 12:59N 37°48' W 122°27'0 0.0
2018-Apr-07 12:29N 37°48' W 122°27'0 0.0
2018-Apr-07 11:59N 37°48' W 122°27'0 0.0
2018-Apr-07 11:29N 37°48' W 122°27'0 0.0
2018-Apr-07 10:56N 37°48' W 122°27'0 0.0
2018-Apr-07 10:26N 37°48' W 122°27'0 0.0
2018-Apr-07 09:58N 37°48' W 122°27'0 0.0
2018-Apr-07 09:30N 37°48' W 122°27'0 0.0
2018-Apr-07 08:57N 37°48' W 122°27'0 0.0
2018-Apr-07 08:30N 37°48' W 122°27'0 0.0
2018-Apr-07 08:00N 37°48' W 122°27'0 0.0
2018-Apr-07 07:30N 37°48' W 122°27'0 0.0
2018-Apr-07 06:59N 37°48' W 122°27'0 0.0
2018-Apr-07 06:29N 37°48' W 122°27'0 0.0
2018-Apr-07 05:56N 37°48' W 122°27'0 0.0
2018-Apr-07 05:29N 37°48' W 122°27'0 0.0
2018-Apr-07 04:56N 37°48' W 122°27'0 0.0
2018-Apr-07 04:29N 37°48' W 122°27'0 0.0
2018-Apr-07 03:59N 37°48' W 122°27'0 0.0
2018-Apr-07 03:25N 37°48' W 122°27'0 0.0
2018-Apr-07 02:58N 37°48' W 122°27'0 0.0
2018-Apr-07 02:28N 37°48' W 122°27'0 0.0
2018-Apr-07 01:58N 37°48' W 122°27'0 0.0
2018-Apr-07 01:28N 37°48' W 122°27'0 0.0
2018-Apr-07 00:58N 37°48' W 122°27'0 0.0
2018-Apr-07 00:28N 37°48' W 122°27'0 0.0
2018-Apr-06 23:58N 37°48' W 122°27'0 0.0
2018-Apr-06 23:28N 37°48' W 122°27'0 0.0
2018-Apr-06 22:58N 37°48' W 122°27'0 0.0
2018-Apr-06 22:28N 37°48' W 122°27'0 0.0
2018-Apr-06 21:58N 37°48' W 122°27'0 0.0
2018-Apr-06 21:28N 37°48' W 122°27'0 0.0
2018-Apr-06 20:58N 37°48' W 122°27'0 0.0
2018-Apr-06 20:28N 37°48' W 122°27'1 2.1
2018-Apr-06 20:00N 37°49' W 122°26'0 0.3
2018-Apr-06 19:27N 37°49' W 122°25'0 0.0
2018-Apr-06 18:54N 37°49' W 122°25'0 0.0
2018-Apr-06 18:18N 37°49' W 122°25'0 0.0
2018-Apr-06 17:57N 37°49' W 122°25'0 0.0
2018-Apr-06 17:29N 37°49' W 122°25'0 0.0
2018-Apr-06 16:56N 37°49' W 122°25'0 0.0
2018-Apr-06 16:23N 37°49' W 122°25'0 0.0
2018-Apr-06 15:59N 37°49' W 122°25'0 0.0
2018-Apr-06 15:29N 37°49' W 122°25'0 0.0
2018-Apr-06 14:56N 37°49' W 122°25'0 0.0
2018-Apr-06 14:29N 37°49' W 122°25'0 0.0
2018-Apr-06 13:59N 37°49' W 122°25'0 0.0
2018-Apr-06 13:29N 37°49' W 122°25'0 0.0
2018-Apr-06 12:58N 37°49' W 122°25'0 0.0
2018-Apr-06 12:28N 37°49' W 122°25'0 0.0
2018-Apr-06 11:58N 37°49' W 122°25'0 0.0
2018-Apr-06 11:19N 37°49' W 122°25'0 0.0
2018-Apr-06 10:55N 37°49' W 122°25'0 0.0
2018-Apr-06 10:22N 37°49' W 122°25'0 0.0
2018-Apr-06 09:55N 37°49' W 122°25'0 0.0
2018-Apr-06 09:16N 37°49' W 122°25'0 0.0
2018-Apr-06 08:58N 37°49' W 122°25'0 0.0
2018-Apr-06 08:30N 37°49' W 122°25'0 0.0
2018-Apr-06 07:57N 37°49' W 122°25'0 0.0
2018-Apr-06 07:24N 37°49' W 122°25'0 0.0
2018-Apr-06 06:42N 37°49' W 122°25'0 0.0
2018-Apr-06 06:24N 37°49' W 122°25'0 0.0
2018-Apr-06 05:42N 37°49' W 122°25'0 0.0
2018-Apr-06 05:30N 37°49' W 122°25'0 0.0
2018-Apr-06 04:57N 37°49' W 122°25'0 0.0
2018-Apr-06 04:30N 37°49' W 122°25'0 0.0
2018-Apr-06 03:54N 37°49' W 122°25'0 0.0
2018-Apr-06 03:17N 37°49' W 122°25'0 0.0
2018-Apr-06 02:59N 37°49' W 122°25'0 0.0
2018-Apr-06 01:50N 37°49' W 122°25'0 0.0
2018-Apr-06 00:55N 37°49' W 122°25'  
Track history (hours):
 
Tides and Currents Weather Stations Pressure Air Temp Water Temp Dewpoint Dewpoint Depression Visibility Wind Speed Wind Dir Waves Ship Positions

Nespuck

Last reported at 2018-Apr-16 00:54 UTC. Time now 2018-Apr-21 19:26 UTC.
Position N 34°05' W 119°15'.

Length 13 m.

Type: Sailing vessel. MMSI: 211422810.

Date/timePositionNaut miles runAvg speedWind from/ knotsBaromVisibWave heightAir tempDewpointWater temp
2018-Apr-16 00:54N 34°05' W 119°15'5 8.0
2018-Apr-16 00:19N 34°01' W 119°19'3 6.5
2018-Apr-15 23:53N 34°02' W 119°23'2 6.0
2018-Apr-15 23:29N 34°03' W 119°25'3 6.4
2018-Apr-15 22:59N 34°03' W 119°29'3 6.5
2018-Apr-15 22:29N 34°04' W 119°33'3 5.2
2018-Apr-15 22:00N 34°04' W 119°36'3 5.9
2018-Apr-15 21:29N 34°05' W 119°40'3 6.4
2018-Apr-15 21:00N 34°06' W 119°43'4 7.3
2018-Apr-15 20:29N 34°08' W 119°47'4 7.4
2018-Apr-15 19:58N 34°09' W 119°52'2 4.7
2018-Apr-15 19:28N 34°10' W 119°54'2 3.5
2018-Apr-15 18:52N 34°10' W 119°57'2 4.5
2018-Apr-15 18:23N 34°10' W 119°60'3 4.1
2018-Apr-15 17:46N 34°10' W 120°03'1 4.1
2018-Apr-15 17:30N 34°11' W 120°04'2 3.9
2018-Apr-15 17:00N 34°11' W 120°06'2 4.6
2018-Apr-15 16:29N 34°11' W 120°09'2 4.1
2018-Apr-15 15:58N 34°11' W 120°12'2 4.5
2018-Apr-15 15:30N 34°12' W 120°14'2 4.4
2018-Apr-15 15:00N 34°13' W 120°17'3 5.4
2018-Apr-15 14:30N 34°13' W 120°20'3 5.2
2018-Apr-15 14:00N 34°14' W 120°23'3 5.2
2018-Apr-15 13:30N 34°15' W 120°26'2 5.0
2018-Apr-15 13:00N 34°16' W 120°29'3 5.3
2018-Apr-15 12:30N 34°16' W 120°32'3 5.4
2018-Apr-15 12:00N 34°17' W 120°35'3 5.1
2018-Apr-15 11:25N 34°18' W 120°38'2 5.7
2018-Apr-15 11:00N 34°18' W 120°41'3 5.8
2018-Apr-15 10:25N 34°18' W 120°45'21 3.8
2018-Apr-15 04:53N 34°31' W 121°06'3 5.6
2018-Apr-15 04:24N 34°33' W 121°07'207 5.6
2018-Apr-13 15:18N 37°48' W 122°34'2 4.7
2018-Apr-13 14:49N 37°48' W 122°31'2 5.1
2018-Apr-13 14:29N 37°49' W 122°29'  
2018-Apr-09 21:57N 37°50' W 122°27'2 3.1
2018-Apr-09 21:26N 37°48' W 122°27'0 0.0
2018-Apr-09 20:56N 37°48' W 122°27'0 0.0
2018-Apr-09 20:29N 37°48' W 122°27'0 0.0
2018-Apr-09 19:59N 37°48' W 122°27'0 0.0
2018-Apr-09 19:28N 37°48' W 122°27'0 0.0
2018-Apr-09 18:58N 37°48' W 122°27'0 0.0
2018-Apr-09 18:28N 37°48' W 122°27'0 0.0
2018-Apr-09 17:55N 37°48' W 122°27'0 0.0
2018-Apr-09 17:28N 37°48' W 122°27'0 0.0
2018-Apr-09 16:58N 37°48' W 122°27'0 0.0
2018-Apr-09 16:27N 37°48' W 122°27'0 0.0
2018-Apr-09 15:57N 37°48' W 122°27'0 0.0
2018-Apr-09 15:27N 37°48' W 122°27'0 0.0
2018-Apr-09 14:57N 37°48' W 122°27'0 0.0
2018-Apr-09 14:27N 37°48' W 122°27'0 0.0
2018-Apr-09 13:57N 37°48' W 122°27'0 0.0
2018-Apr-09 13:30N 37°48' W 122°27'0 0.0
2018-Apr-09 13:00N 37°48' W 122°27'0 0.0
2018-Apr-09 12:26N 37°48' W 122°27'0 0.0
2018-Apr-09 11:57N 37°48' W 122°27'0 0.0
2018-Apr-09 11:21N 37°48' W 122°27'0 0.0
2018-Apr-09 10:59N 37°48' W 122°27'0 0.0
2018-Apr-09 10:26N 37°48' W 122°27'0 0.0
2018-Apr-09 09:59N 37°48' W 122°27'0 0.0
2018-Apr-09 09:29N 37°48' W 122°27'0 0.0
2018-Apr-09 08:56N 37°48' W 122°27'0 0.0
2018-Apr-09 08:25N 37°48' W 122°27'0 0.0
2018-Apr-09 07:55N 37°48' W 122°27'0 0.0
2018-Apr-09 07:25N 37°48' W 122°27'0 0.0
2018-Apr-09 06:55N 37°48' W 122°27'0 0.0
2018-Apr-09 06:25N 37°48' W 122°27'0 0.0
2018-Apr-09 05:58N 37°48' W 122°27'0 0.0
2018-Apr-09 05:28N 37°48' W 122°27'0 0.0
2018-Apr-09 04:58N 37°48' W 122°27'0 0.0
2018-Apr-09 04:25N 37°48' W 122°27'0 0.0
2018-Apr-09 04:00N 37°48' W 122°27'0 0.0
2018-Apr-09 03:30N 37°48' W 122°27'0 0.0
2018-Apr-09 03:00N 37°48' W 122°27'0 0.0
2018-Apr-09 02:30N 37°48' W 122°27'0 0.0
2018-Apr-09 02:00N 37°48' W 122°27'0 0.0
2018-Apr-09 01:27N 37°48' W 122°27'0 0.0
2018-Apr-09 01:01N 37°48' W 122°27'0 0.0
2018-Apr-09 00:25N 37°48' W 122°27'0 0.0
2018-Apr-09 00:00N 37°48' W 122°27'0 0.0
2018-Apr-08 23:24N 37°48' W 122°27'0 0.0
2018-Apr-08 22:54N 37°48' W 122°27'0 0.0
2018-Apr-08 22:30N 37°48' W 122°27'0 0.0
2018-Apr-08 22:00N 37°48' W 122°27'0 0.0
2018-Apr-08 21:30N 37°48' W 122°27'0 0.0
2018-Apr-08 21:00N 37°48' W 122°27'0 0.0
2018-Apr-08 20:24N 37°48' W 122°27'0 0.0
2018-Apr-08 19:54N 37°48' W 122°27'0 0.0
2018-Apr-08 19:27N 37°48' W 122°27'0 0.0
2018-Apr-08 19:00N 37°48' W 122°27'0 0.0
2018-Apr-08 18:24N 37°48' W 122°27'0 0.0
2018-Apr-08 17:59N 37°48' W 122°27'0 0.0
2018-Apr-08 17:24N 37°48' W 122°27'0 0.0
2018-Apr-08 16:59N 37°48' W 122°27'0 0.0
2018-Apr-08 16:26N 37°48' W 122°27'0 0.0
2018-Apr-08 15:59N 37°48' W 122°27'0 0.0
2018-Apr-08 15:29N 37°48' W 122°27'0 0.0
2018-Apr-08 14:59N 37°48' W 122°27'0 0.0
2018-Apr-08 14:30N 37°48' W 122°27'0 0.0
2018-Apr-08 14:00N 37°48' W 122°27'0 0.0
2018-Apr-08 13:30N 37°48' W 122°27'0 0.0
2018-Apr-08 13:00N 37°48' W 122°27'0 0.0
2018-Apr-08 12:30N 37°48' W 122°27'0 0.0
2018-Apr-08 12:00N 37°48' W 122°27'0 0.0
2018-Apr-08 11:30N 37°48' W 122°27'0 0.0
2018-Apr-08 10:59N 37°48' W 122°27'0 0.0
2018-Apr-08 10:29N 37°48' W 122°27'0 0.0
2018-Apr-08 09:56N 37°48' W 122°27'0 0.0
2018-Apr-08 09:28N 37°48' W 122°27'0 0.0
2018-Apr-08 08:58N 37°48' W 122°27'0 0.0
2018-Apr-08 08:28N 37°48' W 122°27'0 0.0
2018-Apr-08 07:48N 37°48' W 122°27'0 0.0
2018-Apr-08 07:30N 37°48' W 122°27'0 0.0
2018-Apr-08 07:00N 37°48' W 122°27'0 0.0
2018-Apr-08 06:30N 37°48' W 122°27'0 0.0
2018-Apr-08 06:00N 37°48' W 122°27'0 0.0
2018-Apr-08 05:30N 37°48' W 122°27'0 0.0
2018-Apr-08 04:59N 37°48' W 122°27'0 0.0
2018-Apr-08 04:29N 37°48' W 122°27'0 0.0
2018-Apr-08 03:59N 37°48' W 122°27'0 0.0
2018-Apr-08 03:28N 37°48' W 122°27'0 0.0
2018-Apr-08 02:58N 37°48' W 122°27'0 0.0
2018-Apr-08 02:28N 37°48' W 122°27'0 0.0
2018-Apr-08 01:58N 37°48' W 122°27'0 0.0
2018-Apr-08 01:16N 37°48' W 122°27'0 0.0
2018-Apr-08 00:58N 37°48' W 122°27'0 0.0
2018-Apr-08 00:28N 37°48' W 122°27'0 0.0
2018-Apr-07 23:58N 37°48' W 122°27'0 0.0
2018-Apr-07 23:25N 37°48' W 122°27'0 0.0
2018-Apr-07 22:55N 37°48' W 122°27'0 0.0
2018-Apr-07 22:27N 37°48' W 122°27'0 0.0
2018-Apr-07 22:00N 37°48' W 122°27'0 0.0
2018-Apr-07 21:27N 37°48' W 122°27'0 0.0
2018-Apr-07 20:57N 37°48' W 122°27'0 0.0
2018-Apr-07 20:27N 37°48' W 122°27'0 0.0
2018-Apr-07 19:57N 37°48' W 122°27'0 0.0
2018-Apr-07 19:30N 37°48' W 122°27'0 0.0
2018-Apr-07 19:00N 37°48' W 122°27'0 0.0
2018-Apr-07 18:27N 37°48' W 122°27'0 0.0
2018-Apr-07 17:54N 37°48' W 122°27'0 0.0
2018-Apr-07 17:30N 37°48' W 122°27'0 0.0
2018-Apr-07 17:00N 37°48' W 122°27'0 0.0
2018-Apr-07 16:30N 37°48' W 122°27'0 0.0
2018-Apr-07 16:00N 37°48' W 122°27'0 0.0
2018-Apr-07 15:30N 37°48' W 122°27'0 0.0
2018-Apr-07 14:57N 37°48' W 122°27'0 0.0
2018-Apr-07 14:27N 37°48' W 122°27'0 0.0
2018-Apr-07 13:59N 37°48' W 122°27'0 0.0
2018-Apr-07 13:29N 37°48' W 122°27'0 0.0
2018-Apr-07 12:59N 37°48' W 122°27'0 0.0
2018-Apr-07 12:29N 37°48' W 122°27'0 0.0
2018-Apr-07 11:59N 37°48' W 122°27'0 0.0
2018-Apr-07 11:29N 37°48' W 122°27'0 0.0
2018-Apr-07 10:56N 37°48' W 122°27'0 0.0
2018-Apr-07 10:26N 37°48' W 122°27'0 0.0
2018-Apr-07 09:58N 37°48' W 122°27'0 0.0
2018-Apr-07 09:30N 37°48' W 122°27'0 0.0
2018-Apr-07 08:57N 37°48' W 122°27'0 0.0
2018-Apr-07 08:30N 37°48' W 122°27'0 0.0
2018-Apr-07 08:00N 37°48' W 122°27'0 0.0
2018-Apr-07 07:30N 37°48' W 122°27'0 0.0
2018-Apr-07 06:59N 37°48' W 122°27'0 0.0
2018-Apr-07 06:29N 37°48' W 122°27'0 0.0
2018-Apr-07 05:56N 37°48' W 122°27'0 0.0
2018-Apr-07 05:29N 37°48' W 122°27'0 0.0
2018-Apr-07 04:56N 37°48' W 122°27'0 0.0
2018-Apr-07 04:29N 37°48' W 122°27'0 0.0
2018-Apr-07 03:59N 37°48' W 122°27'0 0.0
2018-Apr-07 03:25N 37°48' W 122°27'0 0.0
2018-Apr-07 02:58N 37°48' W 122°27'0 0.0
2018-Apr-07 02:28N 37°48' W 122°27'0 0.0
2018-Apr-07 01:58N 37°48' W 122°27'0 0.0
2018-Apr-07 01:28N 37°48' W 122°27'0 0.0
2018-Apr-07 00:58N 37°48' W 122°27'0 0.0
2018-Apr-07 00:28N 37°48' W 122°27'0 0.0
2018-Apr-06 23:58N 37°48' W 122°27'0 0.0
2018-Apr-06 23:28N 37°48' W 122°27'0 0.0
2018-Apr-06 22:58N 37°48' W 122°27'0 0.0
2018-Apr-06 22:28N 37°48' W 122°27'0 0.0
2018-Apr-06 21:58N 37°48' W 122°27'0 0.0
2018-Apr-06 21:28N 37°48' W 122°27'0 0.0
2018-Apr-06 20:58N 37°48' W 122°27'0 0.0
2018-Apr-06 20:28N 37°48' W 122°27'1 2.1
2018-Apr-06 20:00N 37°49' W 122°26'0 0.3
2018-Apr-06 19:27N 37°49' W 122°25'0 0.0
2018-Apr-06 18:54N 37°49' W 122°25'0 0.0
2018-Apr-06 18:18N 37°49' W 122°25'0 0.0
2018-Apr-06 17:57N 37°49' W 122°25'0 0.0
2018-Apr-06 17:29N 37°49' W 122°25'0 0.0
2018-Apr-06 16:56N 37°49' W 122°25'0 0.0
2018-Apr-06 16:23N 37°49' W 122°25'0 0.0
2018-Apr-06 15:59N 37°49' W 122°25'0 0.0
2018-Apr-06 15:29N 37°49' W 122°25'0 0.0
2018-Apr-06 14:56N 37°49' W 122°25'0 0.0
2018-Apr-06 14:29N 37°49' W 122°25'0 0.0
2018-Apr-06 13:59N 37°49' W 122°25'0 0.0
2018-Apr-06 13:29N 37°49' W 122°25'0 0.0
2018-Apr-06 12:58N 37°49' W 122°25'0 0.0
2018-Apr-06 12:28N 37°49' W 122°25'0 0.0
2018-Apr-06 11:58N 37°49' W 122°25'0 0.0
2018-Apr-06 11:19N 37°49' W 122°25'0 0.0
2018-Apr-06 10:55N 37°49' W 122°25'0 0.0
2018-Apr-06 10:22N 37°49' W 122°25'0 0.0
2018-Apr-06 09:55N 37°49' W 122°25'0 0.0
2018-Apr-06 09:16N 37°49' W 122°25'0 0.0
2018-Apr-06 08:58N 37°49' W 122°25'0 0.0
2018-Apr-06 08:30N 37°49' W 122°25'0 0.0
2018-Apr-06 07:57N 37°49' W 122°25'0 0.0
2018-Apr-06 07:24N 37°49' W 122°25'0 0.0
2018-Apr-06 06:42N 37°49' W 122°25'0 0.0
2018-Apr-06 06:24N 37°49' W 122°25'0 0.0
2018-Apr-06 05:42N 37°49' W 122°25'0 0.0
2018-Apr-06 05:30N 37°49' W 122°25'0 0.0
2018-Apr-06 04:57N 37°49' W 122°25'0 0.0
2018-Apr-06 04:30N 37°49' W 122°25'0 0.0
2018-Apr-06 03:54N 37°49' W 122°25'0 0.0
2018-Apr-06 03:17N 37°49' W 122°25'0 0.0
2018-Apr-06 02:59N 37°49' W 122°25'0 0.0
2018-Apr-06 01:50N 37°49' W 122°25'0 0.0
2018-Apr-06 00:55N 37°49' W 122°25'  

Dump ship's entire track history